Danielson, Connecticut
Current Conditions -  °F | °C
As of 1:52 PM on Saturday 25 Oct 2014 (Local Time) from KIJD Reporting Station
Clear Clear  
Wind Chill: 17°   Ceiling: Unl
Heat Index: 17°   Visibility: 10mi
Dew Point:   Wind: 9mph
Humidity: 46%   Direction: 280°W
Pressure: 29.68"   Gusts: NA
Location:  41.8°N, 71.89°W
Report Text: KIJD 251752Z AUTO 28008KT 10SM CLR 17/06 A2968 RMK AO2 SLP052 T01720056 10178 20039 58031
Loading
Personal Weather Stations






























Interactive Weather Map
Tropical Storm Tracking
New forecast layout! Learn more

10-Day Weather Forecast

Advertisements
Track Severe Weather on mobile